Time;durP1;ratioP1;P1;durP2;ratioP2;P2;SDS_P1;SDS_P2;PMS_P1;PMS_P2;Temp;Humidity;BMP_temperature;BMP_pressure;BME280_temperature;BME280_humidity;BME280_pressure;Samples;Min_cycle;Max_cycle;Signal;HPM_P1;HPM_P2
2021/05/16 00:00:50;;;;;;;6.57;3.40;;;12.60;99.90;;;;;;4155481;28;20555;-64
2021/05/16 00:02:52;;;;;;;5.07;3.07;;;12.60;99.90;;;;;;4156199;28;20060;-64
2021/05/16 00:04:53;;;;;;;3.70;2.93;;;12.60;99.90;;;;;;4155526;28;20068;-64
2021/05/16 00:06:54;;;;;;;6.30;3.20;;;12.60;99.90;;;;;;4156233;28;20080;-65
2021/05/16 00:08:55;;;;;;;4.63;3.13;;;12.60;99.90;;;;;;4155357;28;20143;-69
2021/05/16 00:10:57;;;;;;;5.47;3.17;;;12.60;99.90;;;;;;4156502;28;20065;-69
2021/05/16 00:12:59;;;;;;;4.13;2.70;;;12.60;99.90;;;;;;4155401;28;20029;-66
2021/05/16 00:15:00;;;;;;;4.87;2.73;;;12.70;99.90;;;;;;4156403;28;20042;-67
2021/05/16 00:17:03;;;;;;;4.60;2.43;;;12.70;99.90;;;;;;4155233;28;20042;-66
2021/05/16 00:19:05;;;;;;;2.90;2.50;;;12.80;99.90;;;;;;4156052;28;20436;-66
2021/05/16 00:21:06;;;;;;;4.10;2.40;;;12.80;99.90;;;;;;4154851;28;20041;-65
2021/05/16 00:23:07;;;;;;;6.83;2.57;;;12.70;99.90;;;;;;4156236;28;20100;-65
2021/05/16 00:25:12;;;;;;;9.53;2.83;;;12.80;99.90;;;;;;4155264;28;20052;-66
2021/05/16 00:27:13;;;;;;;4.50;2.20;;;12.70;99.90;;;;;;4155843;28;20087;-65
2021/05/16 00:29:15;;;;;;;3.53;2.77;;;12.70;99.90;;;;;;4155435;28;20436;-66
2021/05/16 00:31:16;;;;;;;6.20;2.60;;;12.70;99.90;;;;;;4154866;28;20030;-66
2021/05/16 00:33:18;;;;;;;7.70;2.73;;;12.70;99.90;;;;;;4156014;28;20111;-71
2021/05/16 00:35:21;;;;;;;3.87;2.73;;;12.70;99.90;;;;;;4154971;28;20029;-67
2021/05/16 00:37:23;;;;;;;5.43;2.93;;;12.60;99.90;;;;;;4156369;28;20088;-65
2021/05/16 00:39:24;;;;;;;4.00;2.67;;;12.60;99.90;;;;;;4154950;28;20096;-64
2021/05/16 00:41:25;;;;;;;6.23;2.87;;;12.70;99.90;;;;;;4156863;28;20168;-69
2021/05/16 00:43:26;;;;;;;4.40;2.63;;;12.60;99.90;;;;;;4154674;28;20021;-64
2021/05/16 00:45:28;;;;;;;2.67;2.30;;;12.60;99.90;;;;;;4156292;28;20092;-65
2021/05/16 00:47:30;;;;;;;4.93;2.87;;;12.60;99.90;;;;;;4154618;28;20033;-66
2021/05/16 00:49:31;;;;;;;2.70;2.50;;;12.60;99.90;;;;;;4155820;28;20033;-66
2021/05/16 00:51:32;;;;;;;4.43;2.87;;;12.60;99.90;;;;;;4154387;28;20457;-63
2021/05/16 00:53:34;;;;;;;4.37;2.37;;;12.60;99.90;;;;;;4157724;28;20045;-64
2021/05/16 00:55:35;;;;;;;7.67;2.30;;;12.60;99.90;;;;;;4157913;28;20037;-64
2021/05/16 00:57:36;;;;;;;3.33;1.90;;;12.60;99.90;;;;;;4158681;28;20156;-64
2021/05/16 00:59:38;;;;;;;6.33;2.70;;;12.60;99.90;;;;;;4157987;28;20433;-67
2021/05/16 01:01:39;;;;;;;2.83;2.33;;;12.60;99.90;;;;;;4157691;28;20076;-65
2021/05/16 01:03:40;;;;;;;2.50;2.03;;;12.60;99.90;;;;;;4158996;28;20033;-65
2021/05/16 01:05:42;;;;;;;2.80;2.30;;;12.60;99.90;;;;;;4157712;28;20998;-64
2021/05/16 01:07:47;;;;;;;3.23;2.30;;;12.60;99.90;;;;;;4158859;28;20551;-69
2021/05/16 01:09:48;;;;;;;3.63;2.53;;;12.60;99.90;;;;;;4157335;28;20026;-65
2021/05/16 01:11:50;;;;;;;2.70;2.23;;;12.50;99.90;;;;;;4159100;28;20075;-65
2021/05/16 01:13:52;;;;;;;4.53;2.30;;;12.50;99.90;;;;;;4157693;28;20063;-64
2021/05/16 01:15:53;;;;;;;4.40;2.17;;;12.50;99.90;;;;;;4158575;28;20090;-65
2021/05/16 01:17:55;;;;;;;3.33;2.13;;;12.40;99.90;;;;;;4157401;28;20095;-69
2021/05/16 01:19:57;;;;;;;3.00;1.83;;;12.40;99.90;;;;;;4158527;28;20453;-67
2021/05/16 01:21:59;;;;;;;7.00;2.40;;;12.50;99.90;;;;;;4157201;28;20029;-64
2021/05/16 01:24:03;;;;;;;4.00;2.00;;;12.40;99.90;;;;;;4158594;28;20041;-64
2021/05/16 01:26:05;;;;;;;2.63;2.07;;;12.40;99.90;;;;;;4157760;28;20536;-66
2021/05/16 01:28:09;;;;;;;6.03;2.07;;;12.40;99.90;;;;;;4158786;28;20034;-65
2021/05/16 01:30:11;;;;;;;3.53;2.17;;;12.30;99.90;;;;;;4157410;28;20041;-64
2021/05/16 01:32:13;;;;;;;6.03;2.07;;;12.30;99.90;;;;;;4157997;28;20111;-69
2021/05/16 01:34:15;;;;;;;5.73;2.43;;;12.30;99.90;;;;;;4157536;28;20507;-66
2021/05/16 01:36:19;;;;;;;2.80;2.50;;;12.30;99.90;;;;;;4158369;28;20029;-64
2021/05/16 01:38:20;;;;;;;2.90;2.27;;;12.30;99.90;;;;;;4158044;28;20033;-65
2021/05/16 01:40:23;;;;;;;4.87;2.50;;;12.30;99.90;;;;;;4157417;28;20030;-66
2021/05/16 01:42:25;;;;;;;6.47;2.13;;;12.20;99.90;;;;;;4158092;28;20033;-65
2021/05/16 01:44:27;;;;;;;3.33;2.27;;;12.20;99.90;;;;;;4157150;28;20429;-65
2021/05/16 01:46:28;;;;;;;4.23;2.60;;;12.20;99.90;;;;;;4158009;28;20091;-70
2021/05/16 01:48:29;;;;;;;4.00;2.10;;;12.20;99.90;;;;;;4156546;28;20440;-64
2021/05/16 01:50:32;;;;;;;5.57;2.37;;;12.20;99.90;;;;;;4158165;28;20037;-63
2021/05/16 01:52:34;;;;;;;3.27;2.57;;;12.10;99.90;;;;;;4157667;28;20095;-63
2021/05/16 01:54:36;;;;;;;3.70;2.30;;;12.10;99.90;;;;;;4158000;28;20456;-64
2021/05/16 01:56:37;;;;;;;2.47;2.23;;;12.00;99.90;;;;;;4155903;28;20033;-64
2021/05/16 01:58:40;;;;;;;3.27;2.47;;;12.00;99.90;;;;;;4158373;28;20029;-65
2021/05/16 02:00:44;;;;;;;5.77;2.30;;;12.00;99.90;;;;;;4156589;28;20084;-64
2021/05/16 02:02:45;;;;;;;4.77;2.90;;;12.00;99.90;;;;;;4172224;28;20029;-64
2021/05/16 02:04:47;;;;;;;3.97;2.70;;;12.00;99.90;;;;;;4155872;28;20025;-65
2021/05/16 02:06:48;;;;;;;4.47;2.10;;;12.00;99.90;;;;;;4158086;28;20061;-64
2021/05/16 02:08:51;;;;;;;4.30;2.73;;;12.00;99.90;;;;;;4157300;28;20091;-65
2021/05/16 02:10:52;;;;;;;5.23;3.20;;;12.00;99.90;;;;;;4157099;28;20096;-65
2021/05/16 02:12:53;;;;;;;4.83;2.20;;;12.00;99.90;;;;;;4157133;28;20029;-65
2021/05/16 02:14:54;;;;;;;2.57;2.20;;;12.00;99.90;;;;;;4156813;28;20470;-64
2021/05/16 02:16:57;;;;;;;3.73;2.13;;;11.90;99.90;;;;;;4157307;28;20038;-64
2021/05/16 02:18:58;;;;;;;3.30;1.93;;;11.90;99.90;;;;;;4156421;28;20544;-64
2021/05/16 02:21:02;;;;;;;3.47;2.03;;;11.90;99.90;;;;;;4157949;28;20147;-64
2021/05/16 02:23:03;;;;;;;3.20;2.07;;;11.90;99.90;;;;;;4156224;28;20053;-65
2021/05/16 02:25:05;;;;;;;6.50;2.20;;;11.90;99.90;;;;;;4157933;28;20076;-66
2021/05/16 02:27:07;;;;;;;3.90;2.07;;;11.90;99.90;;;;;;4156517;28;20033;-64
2021/05/16 02:29:08;;;;;;;5.87;2.13;;;11.90;99.90;;;;;;4157990;28;20460;-64
2021/05/16 02:31:15;;;;;;;5.63;2.40;;;11.90;99.90;;;;;;4156715;28;20091;-65
2021/05/16 02:33:17;;;;;;;2.90;2.00;;;11.90;99.90;;;;;;4157180;28;20572;-69
2021/05/16 02:35:18;;;;;;;4.37;2.10;;;11.90;99.90;;;;;;4156359;28;20045;-64
2021/05/16 02:37:19;;;;;;;3.73;2.27;;;11.80;99.90;;;;;;4156967;28;20034;-64
2021/05/16 02:39:20;;;;;;;3.03;2.43;;;11.80;99.90;;;;;;4156751;28;20750;-64
2021/05/16 02:41:22;;;;;;;3.80;2.17;;;11.80;99.90;;;;;;4156988;28;20042;-65
2021/05/16 02:43:23;;;;;;;5.50;2.10;;;11.70;99.90;;;;;;4156868;28;20033;-65
2021/05/16 02:45:24;;;;;;;2.53;2.00;;;11.70;99.90;;;;;;4156421;28;20083;-65
2021/05/16 02:47:25;;;;;;;3.80;2.03;;;11.60;99.90;;;;;;4156778;28;20049;-64
2021/05/16 02:49:27;;;;;;;5.93;2.20;;;11.60;99.90;;;;;;4156495;28;20099;-64
2021/05/16 02:51:28;;;;;;;6.47;2.80;;;11.60;99.90;;;;;;4157081;28;20087;-64
2021/05/16 02:53:29;;;;;;;5.83;2.00;;;11.50;99.90;;;;;;4156092;28;20401;-65
2021/05/16 02:55:30;;;;;;;5.70;2.80;;;11.50;99.90;;;;;;4157325;28;20029;-64
2021/05/16 02:57:31;;;;;;;2.23;1.97;;;11.50;99.90;;;;;;4156184;28;20033;-66
2021/05/16 02:59:32;;;;;;;2.93;2.17;;;11.50;99.90;;;;;;4157284;28;20026;-65
2021/05/16 03:01:33;;;;;;;5.70;2.30;;;11.50;99.90;;;;;;4170403;28;20032;-64
2021/05/16 03:03:34;;;;;;;5.83;2.93;;;11.50;99.90;;;;;;4156948;28;20436;-64
2021/05/16 03:05:35;;;;;;;5.27;2.63;;;11.50;99.90;;;;;;4156040;28;20029;-64
2021/05/16 03:07:37;;;;;;;4.10;2.00;;;11.50;99.90;;;;;;4156460;28;20119;-64
2021/05/16 03:09:38;;;;;;;6.93;2.53;;;11.50;99.90;;;;;;4155531;28;20091;-64
2021/05/16 03:11:39;;;;;;;6.53;2.23;;;11.50;99.90;;;;;;4156465;28;20034;-66
2021/05/16 03:13:41;;;;;;;5.07;2.60;;;11.50;99.90;;;;;;4156529;28;20048;-64
2021/05/16 03:15:42;;;;;;;6.20;2.33;;;11.50;99.90;;;;;;4155507;28;20094;-64
2021/05/16 03:17:43;;;;;;;3.73;2.33;;;11.50;99.90;;;;;;4156747;28;20936;-64
2021/05/16 03:19:44;;;;;;;2.50;2.00;;;11.60;99.90;;;;;;4155772;28;20045;-63
2021/05/16 03:21:46;;;;;;;4.07;2.40;;;11.60;99.90;;;;;;4157200;28;20045;-64
2021/05/16 03:23:47;;;;;;;4.60;2.70;;;11.60;99.90;;;;;;4155359;28;20033;-65
2021/05/16 03:25:48;;;;;;;3.80;2.60;;;11.60;99.90;;;;;;4156708;28;20105;-65
2021/05/16 03:27:50;;;;;;;3.43;2.73;;;11.70;99.90;;;;;;4155762;28;20391;-65
2021/05/16 03:29:52;;;;;;;5.80;2.67;;;11.70;99.90;;;;;;4156581;28;20045;-65
2021/05/16 03:31:53;;;;;;;4.77;2.37;;;11.80;99.90;;;;;;4155239;28;20079;-64
2021/05/16 03:33:54;;;;;;;5.87;2.80;;;11.90;99.90;;;;;;4156601;28;20669;-65
2021/05/16 03:35:55;;;;;;;5.33;2.07;;;11.90;99.90;;;;;;4155378;28;20088;-65
2021/05/16 03:37:57;;;;;;;4.50;2.30;;;12.10;99.90;;;;;;4156511;28;20033;-65
2021/05/16 03:39:58;;;;;;;4.70;3.00;;;12.20;99.90;;;;;;4155907;28;20022;-65
2021/05/16 03:41:59;;;;;;;6.63;2.60;;;12.50;99.90;;;;;;4156186;28;20099;-65
2021/05/16 03:44:00;;;;;;;4.10;2.67;;;12.80;99.90;;;;;;4156125;28;20515;-66
2021/05/16 03:46:02;;;;;;;5.13;2.73;;;13.30;99.90;;;;;;4155659;28;20033;-66
2021/05/16 03:48:03;;;;;;;3.40;2.27;;;13.80;99.90;;;;;;4156429;28;20037;-65
2021/05/16 03:50:06;;;;;;;5.93;2.30;;;14.10;99.90;;;;;;4155404;28;20029;-71
2021/05/16 03:52:07;;;;;;;6.10;2.20;;;14.60;99.90;;;;;;4156336;28;20021;-65
2021/05/16 03:54:08;;;;;;;4.23;2.50;;;15.10;99.90;;;;;;4155352;28;20614;-64
2021/05/16 03:56:10;;;;;;;4.47;2.60;;;15.70;99.90;;;;;;4155729;28;20041;-64
2021/05/16 03:58:12;;;;;;;4.20;1.80;;;16.20;99.90;;;;;;4155408;28;20030;-65
2021/05/16 04:00:13;;;;;;;3.93;1.97;;;16.20;99.90;;;;;;4156689;28;20092;-64
2021/05/16 04:02:15;;;;;;;3.37;2.20;;;16.00;99.90;;;;;;4155051;28;20490;-68
2021/05/16 04:04:16;;;;;;;5.90;2.00;;;15.90;99.90;;;;;;4156265;28;20033;-66
2021/05/16 04:06:17;;;;;;;5.97;2.17;;;15.80;99.90;;;;;;4155225;28;20034;-65
2021/05/16 04:08:18;;;;;;;2.80;1.80;;;15.80;99.90;;;;;;4156285;28;20435;-66
2021/05/16 04:10:20;;;;;;;4.37;1.77;;;15.70;99.90;;;;;;4155133;28;20022;-65
2021/05/16 04:12:21;;;;;;;5.03;1.67;;;16.00;99.90;;;;;;4155978;28;20047;-65
2021/05/16 04:14:23;;;;;;;3.70;2.13;;;16.30;99.90;;;;;;4155096;28;20038;-64
2021/05/16 04:16:25;;;;;;;6.93;1.80;;;16.20;99.90;;;;;;4155447;28;20096;-65
2021/05/16 04:18:26;;;;;;;3.63;1.63;;;16.60;99.90;;;;;;4155972;28;20068;-68
2021/05/16 04:20:27;;;;;;;3.88;1.80;;;17.20;99.90;;;;;;4155233;28;20045;-65
2021/05/16 04:22:28;;;;;;;3.85;1.58;;;17.80;99.90;;;;;;4154934;28;20044;-64
2021/05/16 04:24:29;;;;;;;3.28;1.67;;;18.30;99.90;;;;;;4154937;28;20029;-65
2021/05/16 04:26:30;;;;;;;3.33;1.83;;;18.80;99.90;;;;;;4155369;28;20057;-66
2021/05/16 04:28:31;;;;;;;1.60;1.50;;;19.50;99.90;;;;;;4156486;28;20452;-65
2021/05/16 04:30:32;;;;;;;3.75;1.60;;;20.30;99.90;;;;;;4157957;28;20547;-65
2021/05/16 04:32:33;;;;;;;4.03;1.40;;;21.00;99.90;;;;;;4157874;28;20076;-67
2021/05/16 04:34:35;;;;;;;3.95;1.23;;;21.10;99.90;;;;;;4159048;28;20555;-66
2021/05/16 04:36:36;;;;;;;5.68;2.25;;;21.00;99.90;;;;;;4157863;28;20435;-65
2021/05/16 04:38:37;;;;;;;3.20;2.00;;;20.50;99.90;;;;;;4159139;28;20025;-65
2021/05/16 04:40:38;;;;;;;3.95;1.90;;;19.50;99.90;;;;;;4157629;28;20473;-68
2021/05/16 04:42:39;;;;;;;6.20;1.70;;;18.70;99.90;;;;;;4158914;28;20138;-65
2021/05/16 04:44:40;;;;;;;4.22;2.13;;;18.00;99.90;;;;;;4158255;28;20064;-65
2021/05/16 04:46:41;;;;;;;3.42;2.15;;;17.40;99.90;;;;;;4158579;28;20037;-67
2021/05/16 04:48:42;;;;;;;4.40;2.83;;;17.00;99.90;;;;;;4158427;28;20103;-65
2021/05/16 04:50:43;;;;;;;3.83;3.42;;;16.70;99.90;;;;;;4158084;28;20076;-65
2021/05/16 04:52:46;;;;;;;3.45;3.15;;;16.40;99.90;;;;;;4158489;28;20041;-66
2021/05/16 04:54:47;;;;;;;4.63;2.75;;;16.40;99.90;;;;;;4157775;28;20037;-68
2021/05/16 04:59:00;;;;;;;5.88;2.67;;;16.80;99.90;;;;;;4243704;22;20468;-69
2021/05/16 05:01:01;;;;;;;8.20;2.50;;;17.00;99.90;;;;;;4158087;28;20083;-65
2021/05/16 05:03:03;;;;;;;3.58;2.38;;;17.00;99.90;;;;;;4160152;28;20029;-72
2021/05/16 05:05:04;;;;;;;3.20;2.08;;;16.90;99.90;;;;;;4158646;28;20087;-65
2021/05/16 05:07:06;;;;;;;4.68;3.25;;;16.80;99.90;;;;;;4159714;28;20033;-67
2021/05/16 05:09:07;;;;;;;3.38;2.70;;;16.70;99.90;;;;;;4158367;28;20029;-67
2021/05/16 05:11:09;;;;;;;5.65;2.50;;;16.70;99.90;;;;;;4159697;28;20138;-66
2021/05/16 05:13:10;;;;;;;8.18;3.05;;;16.70;99.90;;;;;;4157356;28;20064;-67
2021/05/16 05:15:11;;;;;;;8.05;3.78;;;16.50;99.90;;;;;;4159069;28;20037;-71
2021/05/16 05:17:12;;;;;;;5.30;2.83;;;16.20;99.90;;;;;;4157704;28;20455;-65
2021/05/16 05:19:13;;;;;;;5.15;2.80;;;16.00;99.90;;;;;;4158630;28;20087;-67
2021/05/16 05:21:14;;;;;;;6.70;2.95;;;15.80;99.90;;;;;;4158376;28;20080;-67
2021/05/16 05:23:15;;;;;;;5.88;3.80;;;15.50;99.90;;;;;;4156029;28;20041;-69
2021/05/16 05:25:17;;;;;;;5.85;3.53;;;15.40;99.90;;;;;;4158830;28;20107;-64
2021/05/16 05:27:18;;;;;;;3.95;3.30;;;15.50;99.90;;;;;;4158039;28;20041;-64
2021/05/16 05:29:19;;;;;;;6.03;3.97;;;15.40;99.90;;;;;;4159411;28;20551;-64
2021/05/16 05:31:20;;;;;;;4.97;3.53;;;15.30;99.90;;;;;;4157865;28;20524;-65
2021/05/16 05:33:22;;;;;;;2.67;2.35;;;15.20;99.90;;;;;;4159617;28;20033;-66
2021/05/16 05:35:24;;;;;;;3.72;3.42;;;15.10;99.90;;;;;;4158174;28;20026;-68
2021/05/16 05:37:25;;;;;;;5.30;4.22;;;15.00;99.90;;;;;;4159291;28;20454;-66
2021/05/16 05:39:26;;;;;;;6.75;4.57;;;14.70;99.90;;;;;;4158011;28;20034;-65
2021/05/16 05:41:27;;;;;;;7.27;4.27;;;14.40;99.90;;;;;;4159242;28;20473;-61
2021/05/16 05:43:28;;;;;;;6.70;4.90;;;14.30;99.90;;;;;;4157438;28;20113;-65
2021/05/16 05:45:29;;;;;;;9.40;6.03;;;14.10;99.90;;;;;;4158142;28;20080;-64
2021/05/16 05:47:31;;;;;;;9.60;5.53;;;14.00;99.90;;;;;;4157324;28;20528;-65
2021/05/16 05:49:32;;;;;;;11.87;6.23;;;14.00;99.90;;;;;;4158323;28;20045;-65
2021/05/16 05:51:34;;;;;;;9.57;5.87;;;14.00;99.90;;;;;;4158165;28;20045;-65
2021/05/16 05:53:36;;;;;;;8.27;6.23;;;14.00;99.90;;;;;;4157836;28;20366;-66
2021/05/16 05:55:37;;;;;;;9.47;7.10;;;13.90;99.90;;;;;;4158623;28;20037;-66
2021/05/16 05:57:38;;;;;;;8.63;7.03;;;13.80;99.90;;;;;;4155378;28;20103;-65
2021/05/16 05:59:39;;;;;;;9.30;6.97;;;13.70;99.90;;;;;;4157876;28;20519;-64
2021/05/16 06:01:40;;;;;;;12.03;7.57;;;13.60;99.90;;;;;;4155422;28;20049;-64
2021/05/16 06:03:42;;;;;;;11.10;7.70;;;13.50;99.90;;;;;;4158064;28;20080;-65
2021/05/16 06:05:44;;;;;;;9.07;7.73;;;13.50;99.90;;;;;;4156515;28;20037;-64
2021/05/16 06:07:45;;;;;;;10.17;6.83;;;13.40;99.90;;;;;;4157486;28;20054;-63
2021/05/16 06:09:46;;;;;;;9.63;7.10;;;13.40;99.90;;;;;;4154941;28;20037;-66
2021/05/16 06:11:47;;;;;;;11.23;6.63;;;13.40;99.90;;;;;;4157699;28;20041;-71
2021/05/16 06:13:48;;;;;;;14.00;7.63;;;13.40;99.90;;;;;;4156071;28;20100;-65
2021/05/16 06:15:50;;;;;;;11.90;8.13;;;13.40;99.90;;;;;;4155299;28;20053;-67
2021/05/16 06:17:51;;;;;;;11.93;7.80;;;13.40;99.90;;;;;;4156457;28;20034;-67
2021/05/16 06:19:52;;;;;;;9.77;6.13;;;13.40;99.90;;;;;;4156276;28;20537;-67
2021/05/16 06:21:54;;;;;;;10.53;7.30;;;13.40;99.90;;;;;;4157210;28;20071;-71
2021/05/16 06:24:06;;;;;;;7.37;6.37;;;13.40;99.90;;;;;;4156202;28;20111;-66
2021/05/16 06:26:07;;;;;;;7.90;6.37;;;13.40;99.90;;;;;;4157063;28;20087;-64
2021/05/16 06:28:08;;;;;;;6.80;6.10;;;13.40;99.90;;;;;;4155277;28;20096;-64
2021/05/16 06:30:10;;;;;;;9.23;6.27;;;13.50;99.90;;;;;;4158237;28;20025;-63
2021/05/16 06:32:11;;;;;;;10.37;6.60;;;13.60;99.90;;;;;;4156334;28;20075;-64
2021/05/16 06:34:12;;;;;;;7.67;5.17;;;13.70;99.90;;;;;;4156218;28;20033;-65
2021/05/16 06:36:14;;;;;;;8.50;6.30;;;13.80;99.90;;;;;;4155748;28;20033;-65
2021/05/16 06:38:16;;;;;;;13.00;7.30;;;13.80;99.90;;;;;;4158016;28;20084;-64
2021/05/16 06:40:17;;;;;;;9.20;6.67;;;13.80;99.90;;;;;;4156109;28;20021;-68
2021/05/16 06:42:18;;;;;;;8.40;6.50;;;13.70;99.90;;;;;;4157036;28;20083;-70
2021/05/16 06:44:19;;;;;;;8.93;8.03;;;13.80;99.90;;;;;;4155695;28;20083;-72
2021/05/16 06:46:20;;;;;;;13.30;8.90;;;13.80;99.90;;;;;;4157410;28;20424;-69
2021/05/16 06:48:21;;;;;;;6.70;5.27;;;13.80;99.90;;;;;;4155491;28;20432;-72
2021/05/16 06:50:23;;;;;;;6.63;5.13;;;13.80;99.90;;;;;;4156536;28;20095;-69
2021/05/16 06:52:24;;;;;;;7.40;4.90;;;13.80;99.90;;;;;;4156262;28;20059;-71
2021/05/16 06:54:25;;;;;;;6.47;4.77;;;13.80;99.90;;;;;;4156413;28;20519;-66
2021/05/16 06:56:26;;;;;;;5.33;4.30;;;13.80;99.90;;;;;;4156552;28;20029;-65
2021/05/16 06:58:28;;;;;;;7.57;4.87;;;13.90;99.90;;;;;;4155598;28;20103;-67
2021/05/16 07:00:30;;;;;;;7.50;4.93;;;13.90;99.90;;;;;;4157086;28;20079;-64
2021/05/16 07:02:31;;;;;;;7.53;5.67;;;14.00;99.90;;;;;;4155693;28;20470;-65
2021/05/16 07:04:32;;;;;;;41.33;24.70;;;14.10;99.90;;;;;;4156882;28;20041;-64
2021/05/16 07:06:33;;;;;;;31.40;19.27;;;14.20;99.90;;;;;;4155123;28;20029;-65
2021/05/16 07:08:35;;;;;;;11.83;6.73;;;14.30;99.90;;;;;;4157274;28;20087;-65
2021/05/16 07:10:36;;;;;;;9.73;5.60;;;14.40;99.90;;;;;;4154430;28;20107;-70
2021/05/16 07:12:37;;;;;;;9.33;4.63;;;14.50;99.90;;;;;;4156967;28;20111;-70
2021/05/16 07:14:38;;;;;;;7.00;5.47;;;14.70;99.90;;;;;;4154551;28;20444;-67
2021/05/16 07:16:39;;;;;;;13.63;6.03;;;14.80;99.90;;;;;;4156528;28;20033;-70
2021/05/16 07:18:41;;;;;;;7.00;5.60;;;14.90;99.90;;;;;;4154391;28;20037;-66
2021/05/16 07:20:42;;;;;;;10.67;9.00;;;14.90;99.90;;;;;;4156456;28;20034;-71
2021/05/16 07:22:43;;;;;;;14.17;9.70;;;15.00;99.90;;;;;;4155222;28;20029;-67
2021/05/16 07:24:44;;;;;;;7.37;4.70;;;15.10;99.90;;;;;;4156145;28;20358;-69
2021/05/16 07:26:46;;;;;;;5.97;2.90;;;15.20;99.90;;;;;;4156388;28;20034;-66
2021/05/16 07:28:47;;;;;;;3.80;2.37;;;15.20;99.90;;;;;;4155009;28;20096;-68
2021/05/16 07:30:48;;;;;;;3.20;1.90;;;15.30;99.90;;;;;;4155888;28;20042;-65
2021/05/16 07:32:49;;;;;;;2.87;2.50;;;15.30;99.90;;;;;;4155057;28;20021;-66
2021/05/16 07:34:50;;;;;;;8.73;2.50;;;15.30;99.90;;;;;;4156002;28;20041;-68
2021/05/16 07:36:51;;;;;;;3.53;2.83;;;15.40;99.90;;;;;;4155031;28;20496;-69
2021/05/16 07:38:52;;;;;;;6.90;3.83;;;15.40;99.90;;;;;;4155597;28;20068;-63
2021/05/16 07:40:54;;;;;;;5.87;4.10;;;15.40;99.90;;;;;;4154894;28;20466;-65
2021/05/16 07:42:56;;;;;;;6.43;3.90;;;15.40;99.90;;;;;;4156745;28;20481;-63
2021/05/16 07:44:57;;;;;;;5.03;2.93;;;15.40;99.90;;;;;;4155166;28;20041;-69
2021/05/16 07:46:59;;;;;;;3.57;2.70;;;15.40;99.90;;;;;;4155690;28;20095;-64
2021/05/16 07:49:00;;;;;;;5.40;3.00;;;15.40;99.90;;;;;;4154915;28;20025;-64
2021/05/16 07:51:02;;;;;;;5.88;3.10;;;15.40;99.90;;;;;;4153950;28;20083;-64
2021/05/16 07:53:04;;;;;;;4.93;2.93;;;15.30;99.90;;;;;;4155170;28;20474;-64
2021/05/16 07:55:06;;;;;;;3.92;3.42;;;15.30;99.90;;;;;;4155501;28;20037;-66
2021/05/16 07:57:08;;;;;;;3.33;3.00;;;15.20;99.90;;;;;;4155402;28;20083;-63
2021/05/16 07:59:09;;;;;;;5.00;3.30;;;15.20;99.90;;;;;;4137110;28;667819;-65
2021/05/16 08:01:10;;;;;;;3.03;2.63;;;15.10;99.90;;;;;;4154527;28;20086;-67
2021/05/16 08:03:11;;;;;;;3.53;2.97;;;15.10;99.90;;;;;;4154861;28;20063;-66
2021/05/16 08:05:14;;;;;;;5.33;3.30;;;15.10;99.90;;;;;;4158853;28;20025;-65
2021/05/16 08:07:15;;;;;;;5.10;3.27;;;14.80;99.90;;;;;;4156454;28;20079;-65
2021/05/16 08:09:16;;;;;;;4.80;3.53;;;14.80;99.90;;;;;;4158712;28;20025;-65
2021/05/16 08:11:17;;;;;;;7.10;3.93;;;14.80;99.90;;;;;;4156734;28;20095;-67
2021/05/16 08:13:18;;;;;;;5.47;3.50;;;14.80;99.90;;;;;;4156843;28;20140;-69
2021/05/16 08:15:20;;;;;;;4.33;3.50;;;14.80;99.90;;;;;;4156717;28;20080;-67
2021/05/16 08:17:21;;;;;;;8.40;3.93;;;14.70;99.90;;;;;;4158664;28;20543;-65
2021/05/16 08:19:23;;;;;;;4.37;3.07;;;14.80;99.90;;;;;;4156778;28;20061;-66
2021/05/16 08:21:24;;;;;;;4.47;3.67;;;14.80;99.90;;;;;;4158393;28;20084;-64
2021/05/16 08:23:25;;;;;;;9.00;3.77;;;14.80;99.90;;;;;;4156479;28;20042;-64
2021/05/16 08:25:26;;;;;;;6.63;4.00;;;14.80;99.90;;;;;;4158309;28;20553;-65
2021/05/16 08:27:27;;;;;;;8.20;4.17;;;14.80;99.90;;;;;;4156252;28;20049;-65
2021/05/16 08:29:28;;;;;;;6.23;3.97;;;14.80;99.90;;;;;;4157706;28;20572;-65
2021/05/16 08:31:29;;;;;;;4.97;3.77;;;14.70;99.90;;;;;;4157486;28;20041;-66
2021/05/16 08:33:31;;;;;;;5.93;4.40;;;14.70;99.90;;;;;;4156625;28;20087;-64
2021/05/16 08:35:32;;;;;;;3.93;3.37;;;14.70;99.90;;;;;;4158180;28;20033;-64
2021/05/16 08:37:34;;;;;;;8.83;4.77;;;14.70;99.90;;;;;;4156340;28;20495;-64
2021/05/16 08:39:35;;;;;;;5.60;4.13;;;14.70;99.90;;;;;;4158354;28;20095;-66
2021/05/16 08:41:36;;;;;;;9.33;4.20;;;14.90;99.90;;;;;;4155869;28;20072;-64
2021/05/16 08:43:38;;;;;;;7.87;3.90;;;14.90;99.90;;;;;;4158317;28;20115;-64
2021/05/16 08:45:39;;;;;;;6.43;3.77;;;14.90;99.90;;;;;;4154574;28;20041;-64
2021/05/16 08:47:43;;;;;;;3.83;3.43;;;15.00;99.90;;;;;;4158028;28;20091;-66
2021/05/16 08:49:44;;;;;;;4.33;3.70;;;15.00;99.90;;;;;;4156264;28;20037;-64
2021/05/16 08:51:50;;;;;;;4.07;3.63;;;14.90;99.90;;;;;;4158304;28;21869;-64
2021/05/16 08:53:53;;;;;;;6.70;4.57;;;15.00;99.90;;;;;;4155776;28;20087;-64
2021/05/16 08:55:55;;;;;;;5.93;4.17;;;15.00;99.90;;;;;;4157617;28;20037;-65
2021/05/16 08:57:56;;;;;;;6.73;4.83;;;15.00;99.90;;;;;;4155812;28;20571;-65
2021/05/16 09:00:14;;;;;;;7.10;4.87;;;15.00;99.90;;;;;;4157722;28;20100;-64
2021/05/16 09:02:15;;;;;;;4.47;4.07;;;14.90;99.90;;;;;;4155821;28;20041;-68
2021/05/16 09:04:29;;;;;;;6.83;4.07;;;15.00;99.90;;;;;;4157459;28;20030;-66
2021/05/16 09:06:34;;;;;;;5.13;3.27;;;15.00;99.90;;;;;;4155970;28;20072;-66
2021/05/16 09:08:35;;;;;;;2.87;2.60;;;15.00;99.90;;;;;;4156888;28;20481;-65
2021/05/16 09:10:37;;;;;;;2.67;2.47;;;15.00;99.90;;;;;;4156194;28;20083;-65
2021/05/16 09:12:39;;;;;;;3.03;2.60;;;15.00;99.90;;;;;;4155448;28;20551;-65
2021/05/16 09:14:44;;;;;;;3.10;2.73;;;15.00;99.90;;;;;;4154684;28;20107;-64
2021/05/16 09:16:45;;;;;;;5.70;2.70;;;15.10;99.90;;;;;;4155599;28;20084;-64
2021/05/16 09:18:55;;;;;;;6.67;5.93;;;15.10;99.90;;;;;;4157270;28;20481;-64
2021/05/16 09:21:17;;;;;;;9.90;5.57;;;15.10;99.90;;;;;;4155471;28;20072;-64
2021/05/16 09:23:22;;;;;;;7.93;4.60;;;15.10;99.90;;;;;;4156453;28;20493;-68
2021/05/16 09:25:26;;;;;;;4.90;3.90;;;15.10;99.90;;;;;;4155833;28;20033;-64
2021/05/16 09:27:27;;;;;;;2.73;2.10;;;15.20;99.90;;;;;;4156879;28;20366;-65
2021/05/16 09:29:44;;;;;;;3.90;2.80;;;15.20;99.90;;;;;;4155677;28;20030;-71
2021/05/16 09:31:45;;;;;;;2.60;2.40;;;15.30;99.90;;;;;;4156955;28;20163;-68
2021/05/16 09:34:01;;;;;;;1.33;1.23;;;15.40;99.90;;;;;;4155055;28;20547;-68
2021/05/16 09:36:08;;;;;;;2.63;1.50;;;15.50;99.90;;;;;;4156830;28;20049;-65
2021/05/16 09:38:20;;;;;;;4.57;3.00;;;15.60;99.90;;;;;;4155710;28;20091;-64
2021/05/16 09:40:26;;;;;;;10.45;8.02;;;15.60;99.90;;;;;;4154660;28;20045;-65
2021/05/16 09:42:27;;;;;;;12.70;11.23;;;15.60;99.90;;;;;;4152489;28;20050;-64
2021/05/16 09:44:35;;;;;;;11.52;9.60;;;15.50;99.90;;;;;;4156860;28;20481;-64
2021/05/16 09:46:36;;;;;;;8.23;6.43;;;15.40;99.90;;;;;;4152909;28;20104;-65
2021/05/16 09:48:47;;;;;;;9.70;4.82;;;15.40;99.90;;;;;;4157053;28;20122;-65
2021/05/16 09:51:11;;;;;;;4.43;2.90;;;15.30;99.90;;;;;;4155103;28;20527;-64
2021/05/16 09:53:12;;;;;;;2.25;2.13;;;15.30;99.90;;;;;;4155200;28;20493;-66
2021/05/16 09:55:13;;;;;;;3.83;2.40;;;15.30;99.90;;;;;;4155608;28;20041;-65
2021/05/16 09:57:15;;;;;;;5.67;2.70;;;15.20;99.90;;;;;;4157424;28;20092;-64
2021/05/16 09:59:16;;;;;;;3.83;2.87;;;15.30;99.90;;;;;;4158497;28;20045;-65
2021/05/16 10:01:19;;;;;;;6.73;3.70;;;15.40;99.90;;;;;;4157049;28;20445;-64
2021/05/16 10:03:20;;;;;;;3.08;2.10;;;15.40;99.90;;;;;;4155153;28;20095;-62
2021/05/16 10:05:21;;;;;;;11.37;3.13;;;15.40;99.90;;;;;;4156946;28;20095;-69
2021/05/16 10:07:23;;;;;;;7.77;3.67;;;15.50;99.90;;;;;;4154359;28;20041;-65
2021/05/16 10:09:25;;;;;;;6.03;3.70;;;15.60;99.90;;;;;;4156260;28;20037;-66
2021/05/16 10:11:29;;;;;;;3.47;3.07;;;15.70;99.90;;;;;;4154645;28;20049;-67
2021/05/16 10:13:35;;;;;;;4.53;2.25;;;15.70;99.90;;;;;;4155809;28;20029;-67
2021/05/16 10:15:36;;;;;;;2.70;2.33;;;15.80;99.90;;;;;;4155324;28;20026;-65
2021/05/16 10:17:40;;;;;;;5.93;2.50;;;15.90;99.90;;;;;;4155000;28;20041;-68
2021/05/16 10:19:43;;;;;;;6.85;3.65;;;16.10;99.90;;;;;;4155765;28;20083;-67
2021/05/16 10:21:45;;;;;;;3.33;3.03;;;16.20;99.90;;;;;;4153402;28;20119;-67
2021/05/16 10:23:46;;;;;;;5.70;2.80;;;16.30;99.90;;;;;;4156102;28;20063;-67
2021/05/16 10:25:48;;;;;;;5.85;3.03;;;16.50;99.90;;;;;;4153987;28;21041;-68
2021/05/16 10:27:49;;;;;;;5.60;2.90;;;16.60;99.90;;;;;;4156455;28;20536;-65
2021/05/16 10:30:01;;;;;;;3.17;2.92;;;16.90;99.90;;;;;;4154046;28;20179;-66
2021/05/16 10:32:20;;;;;;;5.57;2.80;;;17.10;99.90;;;;;;4156524;28;20021;-66
2021/05/16 10:34:30;;;;;;;2.95;2.75;;;17.30;99.90;;;;;;4154081;28;20025;-70
2021/05/16 10:36:43;;;;;;;2.40;1.83;;;17.50;99.90;;;;;;4156475;28;20103;-65